Time;durP1;ratioP1;P1;durP2;ratioP2;P2;SDS_P1;SDS_P2;PMS_P1;PMS_P2;Temp;Humidity;BMP_temperature;BMP_pressure;BME280_temperature;BME280_humidity;BME280_pressure;Samples;Min_cycle;Max_cycle;Signal;HPM_P1;HPM_P2
2022/06/14 00:03:13;;;;;;;6.18;0.90;;;18.00;68.70;;;;;;5094850;28;20122;-76
2022/06/14 00:05:39;;;;;;;3.13;0.65;;;18.00;68.70;;;;;;5094951;28;20056;-76
2022/06/14 00:08:05;;;;;;;7.65;1.50;;;18.00;68.50;;;;;;5094915;28;20074;-76
2022/06/14 00:10:31;;;;;;;5.85;0.90;;;18.00;68.50;;;;;;5094891;28;20081;-76
2022/06/14 00:12:56;;;;;;;7.10;0.90;;;18.00;68.60;;;;;;5094597;28;20031;-76
2022/06/14 00:15:22;;;;;;;5.30;1.00;;;17.90;68.70;;;;;;5094959;28;20024;-76
2022/06/14 00:17:48;;;;;;;4.65;0.90;;;17.90;68.60;;;;;;5095078;28;20405;-76
2022/06/14 00:20:14;;;;;;;6.47;1.08;;;17.90;68.70;;;;;;5093567;28;20027;-76
2022/06/14 00:22:40;;;;;;;3.38;0.75;;;17.90;68.60;;;;;;5094655;28;20479;-76
2022/06/14 00:25:07;;;;;;;5.13;1.02;;;17.90;68.90;;;;;;5094780;28;20032;-76
2022/06/14 00:27:32;;;;;;;3.63;0.80;;;17.80;69.10;;;;;;5094445;28;20016;-76
2022/06/14 00:29:58;;;;;;;4.07;0.52;;;17.80;69.10;;;;;;5094569;28;20039;-76
2022/06/14 00:32:23;;;;;;;4.53;0.70;;;17.80;69.30;;;;;;5094525;28;20506;-76
2022/06/14 00:34:49;;;;;;;7.05;1.08;;;17.80;69.60;;;;;;5094673;28;20062;-76
2022/06/14 00:37:17;;;;;;;5.88;1.00;;;17.80;69.40;;;;;;5094472;28;20043;-76
2022/06/14 00:39:43;;;;;;;7.47;1.00;;;17.80;69.20;;;;;;5094142;28;20047;-76
2022/06/14 00:42:19;;;;;;;8.38;1.77;;;17.70;69.20;;;;;;5094288;28;20028;-76
2022/06/14 00:45:01;;;;;;;6.43;1.50;;;17.60;69.20;;;;;;5094349;28;20048;-76
2022/06/14 00:47:28;;;;;;;10.35;1.40;;;17.40;69.90;;;;;;5094321;28;20097;-76
2022/06/14 00:50:01;;;;;;;12.45;2.53;;;17.20;70.30;;;;;;5094047;28;20031;-76
2022/06/14 00:52:35;;;;;;;6.28;0.95;;;17.10;71.00;;;;;;5093971;28;20028;-76
2022/06/14 00:55:09;;;;;;;8.77;1.30;;;17.10;71.30;;;;;;5094103;28;20463;-76
2022/06/14 00:57:58;;;;;;;6.28;1.23;;;17.10;71.40;;;;;;5094142;28;20028;-76
2022/06/14 01:00:31;;;;;;;8.75;1.65;;;17.10;71.50;;;;;;5093851;28;20487;-76
2022/06/14 01:02:59;;;;;;;;;;;17.10;71.70;;;;;;5094425;28;20024;-76
2022/06/14 01:08:26;;;;;;;8.40;1.20;;;16.90;72.00;;;;;;5093880;28;20023;-76
2022/06/14 01:10:52;;;;;;;5.32;1.30;;;17.00;72.00;;;;;;5093658;28;20035;-76
2022/06/14 01:13:20;;;;;;;7.22;1.13;;;17.00;72.00;;;;;;5093770;28;20028;-76
2022/06/14 01:15:49;;;;;;;6.10;1.02;;;17.00;72.20;;;;;;5093802;28;20030;-76
2022/06/14 01:18:15;;;;;;;9.75;1.60;;;16.90;72.50;;;;;;5093601;28;20503;-76
2022/06/14 01:20:42;;;;;;;8.43;1.50;;;16.90;72.40;;;;;;5093771;28;20032;-76
2022/06/14 01:23:11;;;;;;;8.10;1.15;;;16.90;72.50;;;;;;5093908;28;20368;-76
2022/06/14 01:25:42;;;;;;;8.57;1.25;;;16.90;72.60;;;;;;5093606;28;20024;-76
2022/06/14 01:28:10;;;;;;;9.20;1.33;;;16.80;72.70;;;;;;5093557;28;20028;-76
2022/06/14 01:30:45;;;;;;;7.22;1.60;;;16.90;72.90;;;;;;5093296;28;20058;-76
2022/06/14 01:33:22;;;;;;;8.82;1.48;;;17.00;73.10;;;;;;5093695;28;20024;-76
2022/06/14 01:35:52;;;;;;;9.52;1.80;;;17.00;72.90;;;;;;5093454;28;20031;-76
2022/06/14 01:38:18;;;;;;;8.82;1.10;;;17.00;72.70;;;;;;5093726;28;20031;-76
2022/06/14 01:41:13;;;;;;;8.48;1.77;;;16.90;72.80;;;;;;5093260;28;20032;-76
2022/06/14 01:44:13;;;;;;;8.80;1.33;;;16.90;73.40;;;;;;5093286;28;20046;-75
2022/06/14 01:46:52;;;;;;;9.57;1.42;;;16.90;73.00;;;;;;5093522;28;20081;-75
2022/06/14 01:52:53;;;;;;;7.45;1.42;;;16.80;73.30;;;;;;5093400;28;20043;-76
2022/06/14 01:55:48;;;;;;;10.35;1.20;;;16.70;73.70;;;;;;5092916;28;20023;-76
2022/06/14 01:58:20;;;;;;;7.80;1.10;;;16.60;73.90;;;;;;5093236;28;20056;-76
2022/06/14 02:00:56;;;;;;;9.65;1.70;;;16.70;73.90;;;;;;5093522;28;20417;-76
2022/06/14 02:06:59;;;;;;;7.38;1.55;;;16.60;74.30;;;;;;5093300;28;20077;-76
2022/06/14 02:09:40;;;;;;;11.75;1.70;;;16.40;75.00;;;;;;5092967;28;20025;-76
2022/06/14 02:12:11;;;;;;;7.43;1.75;;;16.20;75.50;;;;;;5093071;28;20047;-76
2022/06/14 02:14:44;;;;;;;7.57;1.55;;;16.20;76.00;;;;;;5092862;28;20475;-77
2022/06/14 02:17:13;;;;;;;9.90;1.88;;;16.20;76.20;;;;;;5093150;28;20056;-77
2022/06/14 02:19:48;;;;;;;9.52;1.63;;;16.10;76.20;;;;;;5093096;28;20024;-77
2022/06/14 02:22:22;;;;;;;10.48;2.22;;;15.90;76.90;;;;;;5093113;28;20054;-77
2022/06/14 02:25:02;;;;;;;7.10;1.63;;;15.60;77.50;;;;;;5092996;28;20025;-77
2022/06/14 02:27:40;;;;;;;11.23;1.90;;;15.50;78.20;;;;;;5092992;28;20097;-77
2022/06/14 02:30:14;;;;;;;7.55;1.40;;;15.40;78.40;;;;;;5093095;28;20425;-77
2022/06/14 02:32:51;;;;;;;10.45;1.70;;;15.40;78.60;;;;;;5093074;28;20052;-77
2022/06/14 02:35:25;;;;;;;6.60;1.52;;;15.40;78.60;;;;;;5093058;28;20027;-77
2022/06/14 02:38:07;;;;;;;7.32;1.45;;;15.50;78.60;;;;;;5093346;28;20484;-77
2022/06/14 02:40:42;;;;;;;9.23;1.85;;;15.60;78.40;;;;;;5092785;28;20036;-77
2022/06/14 02:43:23;;;;;;;9.05;1.48;;;15.60;78.50;;;;;;5094101;28;20498;-77
2022/06/14 02:46:31;;;;;;;10.13;1.60;;;15.60;78.90;;;;;;5096441;28;20048;-78
2022/06/14 02:49:27;;;;;;;5.32;0.98;;;15.70;79.00;;;;;;5096593;28;20021;-77
2022/06/14 02:52:12;;;;;;;7.68;1.30;;;15.80;78.70;;;;;;5095898;28;20084;-77
2022/06/14 02:54:45;;;;;;;7.22;1.20;;;15.90;78.50;;;;;;5096709;28;20017;-77
2022/06/14 02:57:17;;;;;;;;;;;16.00;78.20;;;;;;5096856;28;20032;-77
2022/06/14 03:00:01;;;;;;;6.53;1.00;;;16.00;78.20;;;;;;5096321;28;19911;-77
2022/06/14 03:02:36;;;;;;;9.65;1.67;;;15.90;78.20;;;;;;5096281;28;20357;-77
2022/06/14 03:05:47;;;;;;;7.60;1.48;;;16.00;78.30;;;;;;5096512;28;20383;-77
2022/06/14 03:08:31;;;;;;;9.10;1.77;;;16.00;78.10;;;;;;5072122;28;20028;-77
2022/06/14 03:11:17;;;;;;;6.97;1.17;;;16.10;77.90;;;;;;5096284;28;20040;-76
2022/06/14 03:13:55;;;;;;;6.88;1.25;;;16.20;77.80;;;;;;5095390;28;20506;-77
2022/06/14 03:16:45;;;;;;;8.20;1.95;;;16.20;77.70;;;;;;5093935;28;20036;-77
2022/06/14 03:19:43;;;;;;;9.45;1.58;;;16.30;77.80;;;;;;5096314;28;20067;-77
2022/06/14 03:22:30;;;;;;;8.07;1.13;;;16.40;77.70;;;;;;5087799;28;20063;-76
2022/06/14 03:25:01;;;;;;;8.15;1.10;;;16.40;77.50;;;;;;5096071;28;20406;-77
2022/06/14 03:27:34;;;;;;;7.70;1.52;;;16.40;77.40;;;;;;5095758;28;20020;-77
2022/06/14 03:30:15;;;;;;;8.40;1.20;;;16.40;77.30;;;;;;5095903;28;20124;-77
2022/06/14 03:32:47;;;;;;;8.52;2.22;;;16.40;77.30;;;;;;5095980;28;20133;-77
2022/06/14 03:35:19;;;;;;;;;;;16.40;77.40;;;;;;5095982;28;20486;-77
2022/06/14 03:37:45;;;;;;;8.30;1.33;;;16.30;77.40;;;;;;5095553;28;20241;-77
2022/06/14 03:40:15;;;;;;;7.35;1.50;;;16.30;77.50;;;;;;5095771;28;20035;-76
2022/06/14 03:42:41;;;;;;;8.35;1.30;;;16.20;77.50;;;;;;5095652;28;20492;-77
2022/06/14 03:45:10;;;;;;;5.18;1.38;;;16.20;77.70;;;;;;5095033;28;20048;-77
2022/06/14 03:47:36;;;;;;;4.72;1.02;;;16.30;77.70;;;;;;5094974;28;20059;-76
2022/06/14 03:50:11;;;;;;;6.75;1.40;;;16.30;77.60;;;;;;5094993;28;20063;-77
2022/06/14 03:52:51;;;;;;;7.18;1.38;;;16.40;77.50;;;;;;5095641;28;20016;-77
2022/06/14 03:55:41;;;;;;;7.85;1.30;;;16.40;77.30;;;;;;5095113;28;20480;-77
2022/06/14 03:58:15;;;;;;;6.07;1.00;;;16.40;77.10;;;;;;5095085;28;20090;-77
2022/06/14 04:00:55;;;;;;;5.80;1.17;;;16.40;77.10;;;;;;5095418;28;20028;-77
2022/06/14 04:03:47;;;;;;;10.85;1.27;;;16.40;77.10;;;;;;5095436;28;20107;-77
2022/06/14 04:06:37;;;;;;;8.35;1.38;;;16.40;77.10;;;;;;5095222;28;20024;-77
2022/06/14 04:09:23;;;;;;;6.30;1.00;;;16.40;77.30;;;;;;5094871;28;20028;-77
2022/06/14 04:12:01;;;;;;;4.40;0.80;;;16.40;77.30;;;;;;5095047;28;20032;-77
2022/06/14 04:14:33;;;;;;;6.30;1.08;;;16.40;77.40;;;;;;5094987;28;20395;-77
2022/06/14 04:17:21;;;;;;;4.18;0.77;;;16.40;77.50;;;;;;5094848;28;20099;-77
2022/06/14 04:20:20;;;;;;;7.93;1.38;;;16.50;77.90;;;;;;5094987;28;20028;-77
2022/06/14 04:23:12;;;;;;;7.53;1.27;;;16.50;78.00;;;;;;5094640;28;20467;-77
2022/06/14 04:26:02;;;;;;;6.78;0.80;;;16.50;78.40;;;;;;5094550;28;20479;-77
2022/06/14 04:28:58;;;;;;;4.00;0.90;;;16.50;78.70;;;;;;5094638;28;20024;-77
2022/06/14 04:31:31;;;;;;;7.28;1.00;;;16.50;79.00;;;;;;5087602;28;20032;-77
2022/06/14 04:34:17;;;;;;;7.05;1.50;;;16.60;79.20;;;;;;5094833;28;20039;-77
2022/06/14 04:36:54;;;;;;;5.70;1.00;;;16.50;79.50;;;;;;5094743;28;20099;-77
2022/06/14 04:39:33;;;;;;;3.95;1.40;;;16.50;79.50;;;;;;5094426;28;20076;-77
2022/06/14 04:42:12;;;;;;;8.38;1.80;;;16.50;79.80;;;;;;5094213;28;20046;-77
2022/06/14 04:44:49;;;;;;;8.45;1.75;;;16.40;80.20;;;;;;5093836;28;20073;-77
2022/06/14 04:47:22;;;;;;;6.32;1.50;;;16.40;80.40;;;;;;5094589;28;20103;-77
2022/06/14 04:49:56;;;;;;;;;;;16.40;80.40;;;;;;5094783;28;20094;-77
2022/06/14 04:52:36;;;;;;;5.32;0.73;;;16.40;80.40;;;;;;5094239;28;19904;-76
2022/06/14 04:55:35;;;;;;;4.80;1.10;;;16.50;80.30;;;;;;5094105;28;20101;-75
2022/06/14 04:58:17;;;;;;;5.55;0.80;;;16.60;80.50;;;;;;5093597;28;20032;-76
2022/06/14 05:00:56;;;;;;;7.20;0.88;;;16.60;80.50;;;;;;5093936;28;20020;-76
2022/06/14 05:03:34;;;;;;;5.78;0.95;;;16.60;80.40;;;;;;5094062;28;20040;-76
2022/06/14 05:06:06;;;;;;;7.57;1.00;;;16.70;80.40;;;;;;5093514;28;20105;-77
2022/06/14 05:08:48;;;;;;;7.55;1.20;;;16.80;80.20;;;;;;5093989;28;20020;-76
2022/06/14 05:11:21;;;;;;;9.90;1.63;;;16.80;80.10;;;;;;5093477;28;20047;-77
2022/06/14 05:14:08;;;;;;;5.18;1.00;;;16.80;80.00;;;;;;5093924;28;20024;-77
2022/06/14 05:16:57;;;;;;;7.15;1.20;;;16.80;80.10;;;;;;5093627;28;20016;-77
2022/06/14 05:19:42;;;;;;;8.57;1.40;;;16.80;80.20;;;;;;5093515;28;20130;-77
2022/06/14 05:22:22;;;;;;;6.22;1.23;;;16.80;80.40;;;;;;5093667;28;20020;-77
2022/06/14 05:24:50;;;;;;;8.60;1.33;;;16.80;80.90;;;;;;5093309;28;20035;-77
2022/06/14 05:27:24;;;;;;;11.07;1.35;;;16.80;81.10;;;;;;5093102;28;20023;-77
2022/06/14 05:30:06;;;;;;;5.50;1.05;;;16.80;81.30;;;;;;5093262;28;20105;-77
2022/06/14 05:33:16;;;;;;;6.78;0.90;;;16.90;81.40;;;;;;5093213;28;20028;-77
2022/06/14 05:35:51;;;;;;;6.40;1.00;;;16.90;81.40;;;;;;5069044;28;20487;-77
2022/06/14 05:38:38;;;;;;;6.47;1.05;;;16.90;81.50;;;;;;5092974;28;20032;-76
2022/06/14 05:41:08;;;;;;;3.88;0.80;;;16.90;81.50;;;;;;5093116;28;20016;-76
2022/06/14 05:43:49;;;;;;;4.75;0.80;;;16.90;81.50;;;;;;5093080;28;20032;-76
2022/06/14 05:46:27;;;;;;;5.55;1.10;;;17.00;81.50;;;;;;5092942;28;20040;-76
2022/06/14 05:48:58;;;;;;;6.18;0.90;;;17.00;81.30;;;;;;5092783;28;20046;-76
2022/06/14 05:51:29;;;;;;;5.28;0.82;;;17.10;81.20;;;;;;5093264;28;20064;-76
2022/06/14 05:54:30;;;;;;;7.55;1.30;;;17.10;81.20;;;;;;5093133;28;20024;-76
2022/06/14 05:57:01;;;;;;;8.00;1.00;;;17.20;81.00;;;;;;5093009;28;20028;-76
2022/06/14 05:59:42;;;;;;;5.32;0.80;;;17.20;80.60;;;;;;5092900;28;20478;-76
2022/06/14 06:02:37;;;;;;;7.88;1.38;;;17.10;78.90;;;;;;5093278;28;20508;-77
2022/06/14 06:05:17;;;;;;;5.65;0.60;;;17.00;77.90;;;;;;5089810;28;20569;-76
2022/06/14 06:07:58;;;;;;;8.38;1.00;;;17.00;78.40;;;;;;5093077;28;20025;-76
2022/06/14 06:10:35;;;;;;;7.00;1.15;;;17.00;77.20;;;;;;5092990;28;20083;-77
2022/06/14 06:13:12;;;;;;;8.52;1.02;;;17.00;76.90;;;;;;5093127;28;20028;-77
2022/06/14 06:15:56;;;;;;;7.55;1.17;;;17.00;77.10;;;;;;5093112;28;20023;-77
2022/06/14 06:18:41;;;;;;;6.40;0.90;;;17.10;76.40;;;;;;5094357;28;20448;-77
2022/06/14 06:21:33;;;;;;;4.68;0.80;;;17.10;75.30;;;;;;5086026;28;20468;-77
2022/06/14 06:24:07;;;;;;;6.30;1.00;;;17.00;75.90;;;;;;5096994;28;20024;-77
2022/06/14 06:26:38;;;;;;;3.72;0.63;;;17.10;76.00;;;;;;5096765;28;20058;-77
2022/06/14 06:29:37;;;;;;;3.72;0.60;;;17.20;76.00;;;;;;5096541;28;20024;-77
2022/06/14 06:32:05;;;;;;;6.80;1.00;;;17.30;75.20;;;;;;5096408;28;20024;-77
2022/06/14 06:34:30;;;;;;;7.78;0.80;;;17.40;75.10;;;;;;5096620;28;20036;-77
2022/06/14 06:37:17;;;;;;;6.28;0.57;;;17.30;74.50;;;;;;5096615;28;20031;-77
2022/06/14 06:40:06;;;;;;;5.70;0.77;;;17.30;74.20;;;;;;5096864;28;20107;-77
2022/06/14 06:42:41;;;;;;;6.25;1.13;;;17.40;74.30;;;;;;5096409;28;20020;-77
2022/06/14 06:45:10;;;;;;;6.70;0.77;;;17.60;74.10;;;;;;5096279;28;20131;-77
2022/06/14 06:47:41;;;;;;;4.20;0.52;;;17.80;73.40;;;;;;5096766;28;20372;-77
2022/06/14 06:50:07;;;;;;;6.03;1.00;;;17.90;73.70;;;;;;5096359;28;20028;-77
2022/06/14 06:52:55;;;;;;;5.60;0.40;;;18.00;72.60;;;;;;5096580;28;20074;-77
2022/06/14 06:55:56;;;;;;;3.20;0.45;;;18.00;71.80;;;;;;5095751;28;20132;-77
2022/06/14 06:58:23;;;;;;;4.15;0.40;;;18.00;71.70;;;;;;5076181;28;20119;-77
2022/06/14 07:00:50;;;;;;;4.80;0.70;;;18.10;72.10;;;;;;5096051;28;20475;-77
2022/06/14 07:03:25;;;;;;;5.32;0.60;;;18.20;71.00;;;;;;5096489;28;20032;-77
2022/06/14 07:05:55;;;;;;;6.43;0.45;;;18.00;71.80;;;;;;5096286;28;20032;-77
2022/06/14 07:08:43;;;;;;;5.47;0.80;;;18.00;71.50;;;;;;5096360;28;20024;-77
2022/06/14 07:11:15;;;;;;;8.65;0.60;;;18.00;71.70;;;;;;5095859;28;20036;-77
2022/06/14 07:13:55;;;;;;;5.45;0.75;;;17.90;70.50;;;;;;5094737;28;20074;-76
2022/06/14 07:16:35;;;;;;;4.20;0.50;;;17.40;72.60;;;;;;5095727;28;20119;-76
2022/06/14 07:19:17;;;;;;;5.80;0.75;;;17.40;73.30;;;;;;5096101;28;20070;-77
2022/06/14 07:22:03;;;;;;;4.78;0.82;;;17.60;72.00;;;;;;5096110;28;20024;-77
2022/06/14 07:24:40;;;;;;;6.47;0.82;;;17.70;72.60;;;;;;5095626;28;20028;-77
2022/06/14 07:27:13;;;;;;;3.95;0.77;;;17.90;71.00;;;;;;5095581;28;20502;-77
2022/06/14 07:29:48;;;;;;;4.82;0.40;;;18.00;69.60;;;;;;5095614;28;20402;-77
2022/06/14 07:32:22;;;;;;;3.22;0.40;;;18.10;69.40;;;;;;5095637;28;20085;-77
2022/06/14 07:34:48;;;;;;;3.63;0.52;;;18.30;69.90;;;;;;5095652;28;20025;-77
2022/06/14 07:37:19;;;;;;;4.88;0.70;;;18.50;70.40;;;;;;5095359;28;20463;-77
2022/06/14 07:39:56;;;;;;;5.30;0.73;;;18.50;70.10;;;;;;5095652;28;20028;-77
2022/06/14 07:42:42;;;;;;;5.30;0.70;;;18.60;70.20;;;;;;5095530;28;20028;-76
2022/06/14 07:45:34;;;;;;;5.07;0.55;;;18.70;69.30;;;;;;5094977;28;20048;-77
2022/06/14 07:48:16;;;;;;;5.28;0.80;;;18.80;70.50;;;;;;5086298;28;20036;-77
2022/06/14 07:51:07;;;;;;;5.03;0.82;;;19.00;68.90;;;;;;5095341;28;20119;-76
2022/06/14 07:53:58;;;;;;;6.43;0.73;;;19.20;67.70;;;;;;5095109;28;20407;-77
2022/06/14 07:56:31;;;;;;;4.68;0.50;;;19.20;67.00;;;;;;5094703;28;20028;-76
2022/06/14 07:59:09;;;;;;;4.88;0.63;;;19.30;67.30;;;;;;5095343;28;20103;-75
2022/06/14 08:02:06;;;;;;;4.78;0.70;;;19.20;66.50;;;;;;5095038;28;20479;-76
2022/06/14 08:04:43;;;;;;;5.15;0.90;;;19.10;67.00;;;;;;5095295;28;20032;-75
2022/06/14 08:07:18;;;;;;;6.38;0.80;;;18.90;68.50;;;;;;5094775;28;20110;-76
2022/06/14 08:10:05;;;;;;;3.38;0.50;;;18.80;68.60;;;;;;5094619;28;20028;-75
2022/06/14 08:12:34;;;;;;;3.55;0.47;;;18.70;67.70;;;;;;5094801;28;20479;-76
2022/06/14 08:15:07;;;;;;;3.50;0.40;;;18.60;66.90;;;;;;5095062;28;20025;-76
2022/06/14 08:18:03;;;;;;;4.30;0.80;;;18.50;67.00;;;;;;5094846;28;20039;-76
2022/06/14 08:20:56;;;;;;;4.50;0.75;;;18.40;67.50;;;;;;5094786;28;20020;-76
2022/06/14 08:23:25;;;;;;;6.45;0.50;;;18.30;67.80;;;;;;5086883;28;20400;-76
2022/06/14 08:25:56;;;;;;;2.85;0.55;;;18.40;68.40;;;;;;5094720;28;20028;-77
2022/06/14 08:28:49;;;;;;;5.85;0.60;;;18.40;68.50;;;;;;5093103;28;20023;-77
2022/06/14 08:31:21;;;;;;;2.90;0.65;;;18.30;68.70;;;;;;5094684;28;20032;-77
2022/06/14 08:34:03;;;;;;;3.97;0.67;;;18.30;68.60;;;;;;5094381;28;20491;-77
2022/06/14 08:36:45;;;;;;;3.53;0.43;;;18.50;69.40;;;;;;5093611;28;20061;-77
2022/06/14 08:39:17;;;;;;;6.93;0.77;;;18.60;67.00;;;;;;5094561;28;20226;-77
2022/06/14 08:41:49;;;;;;;4.70;0.47;;;18.60;66.70;;;;;;5093498;28;20111;-77
2022/06/14 08:44:25;;;;;;;3.87;0.97;;;18.40;67.40;;;;;;5094073;28;20521;-77
2022/06/14 08:46:54;;;;;;;3.42;0.52;;;18.30;67.60;;;;;;5094080;28;20032;-77
2022/06/14 08:49:32;;;;;;;3.30;0.50;;;18.40;68.20;;;;;;5093385;28;20020;-77
2022/06/14 08:52:28;;;;;;;4.57;0.68;;;18.50;67.80;;;;;;5093658;28;20479;-77
2022/06/14 08:55:14;;;;;;;4.18;0.57;;;18.40;67.40;;;;;;5093959;28;20024;-76
2022/06/14 08:58:00;;;;;;;3.15;0.50;;;18.50;67.20;;;;;;5093994;28;20028;-77
2022/06/14 09:00:29;;;;;;;6.82;0.50;;;18.50;66.80;;;;;;5093635;28;20024;-77
2022/06/14 09:03:12;;;;;;;3.40;0.40;;;18.50;67.10;;;;;;5093393;28;20027;-77
2022/06/14 09:05:47;;;;;;;2.92;0.40;;;18.50;67.60;;;;;;5093781;28;20035;-77
2022/06/14 09:08:32;;;;;;;5.22;0.60;;;18.60;67.90;;;;;;5093813;28;20020;-77
2022/06/14 09:11:16;;;;;;;4.43;0.38;;;18.80;67.10;;;;;;5093842;28;20064;-77
2022/06/14 09:14:00;;;;;;;3.95;0.70;;;19.00;67.40;;;;;;5094103;28;20080;-77
2022/06/14 09:16:32;;;;;;;6.13;0.50;;;18.90;66.40;;;;;;5093567;28;20069;-77
2022/06/14 09:19:18;;;;;;;2.95;0.40;;;18.70;67.40;;;;;;5093945;28;20024;-77
2022/06/14 09:22:39;;;;;;;4.40;0.80;;;18.60;68.10;;;;;;5093530;28;20514;-77
2022/06/14 09:25:59;;;;;;;3.10;0.57;;;18.70;67.90;;;;;;5060619;28;20036;-77
2022/06/14 09:28:33;;;;;;;2.50;0.88;;;18.90;67.50;;;;;;5093883;28;20028;-77
2022/06/14 09:31:41;;;;;;;3.95;0.82;;;19.00;67.00;;;;;;5093642;28;20043;-77
2022/06/14 09:34:44;;;;;;;7.13;0.50;;;19.20;66.50;;;;;;5073222;28;20039;-76
2022/06/14 09:37:30;;;;;;;4.67;0.63;;;19.20;66.60;;;;;;5093672;28;20024;-76
2022/06/14 09:40:07;;;;;;;3.97;0.50;;;19.30;67.60;;;;;;5092810;28;20031;-76
2022/06/14 09:42:52;;;;;;;3.60;0.55;;;19.50;66.90;;;;;;5093675;28;20024;-76
2022/06/14 09:45:37;;;;;;;2.08;0.30;;;19.70;65.90;;;;;;5093267;28;20403;-77
2022/06/14 09:48:12;;;;;;;3.45;0.43;;;20.10;64.30;;;;;;5093199;28;20479;-77
2022/06/14 09:51:15;;;;;;;2.67;0.40;;;20.30;63.20;;;;;;5092835;28;20032;-77
2022/06/14 09:53:49;;;;;;;3.15;0.52;;;20.50;62.90;;;;;;5100059;28;20035;-77
2022/06/14 09:56:33;;;;;;;6.00;0.60;;;20.60;60.80;;;;;;5100093;28;20376;-77
2022/06/14 09:59:25;;;;;;;3.30;0.57;;;20.60;61.00;;;;;;5099698;28;20502;-77
2022/06/14 10:02:09;;;;;;;4.00;0.65;;;20.40;61.70;;;;;;5100147;28;20028;-76
2022/06/14 10:04:53;;;;;;;3.13;0.40;;;20.30;63.00;;;;;;5100030;28;20016;-76
2022/06/14 10:07:37;;;;;;;5.65;1.00;;;20.20;64.50;;;;;;5099411;28;20025;-77
2022/06/14 10:10:15;;;;;;;4.18;0.47;;;20.30;63.50;;;;;;5099149;28;20539;-76
2022/06/14 10:12:58;;;;;;;5.00;0.50;;;20.20;62.80;;;;;;5099401;28;20035;-77
2022/06/14 10:15:37;;;;;;;5.63;0.77;;;20.20;64.30;;;;;;5099568;28;20016;-76
2022/06/14 10:18:40;;;;;;;5.45;0.75;;;20.20;61.10;;;;;;5100117;28;20024;-76
2022/06/14 10:21:13;;;;;;;3.22;0.50;;;20.10;61.00;;;;;;5099802;28;20012;-76
2022/06/14 10:23:42;;;;;;;3.45;0.57;;;20.00;62.00;;;;;;5099885;28;20032;-77
2022/06/14 10:29:21;;;;;;;3.60;0.52;;;20.20;64.30;;;;;;5099653;28;20035;-76
2022/06/14 10:32:17;;;;;;;3.65;0.40;;;20.30;66.80;;;;;;5099457;28;20111;-77
2022/06/14 10:34:43;;;;;;;3.17;0.40;;;20.60;64.70;;;;;;5099793;28;20031;-76
2022/06/14 10:37:24;;;;;;;3.10;0.60;;;20.70;62.40;;;;;;5099508;28;20379;-77
2022/06/14 10:40:33;;;;;;;3.22;0.65;;;20.90;62.70;;;;;;5099686;28;20440;-77
2022/06/14 10:43:14;;;;;;;3.10;0.40;;;21.00;61.40;;;;;;5099311;28;20404;-77
2022/06/14 10:45:47;;;;;;;5.20;0.77;;;21.20;62.30;;;;;;5099467;28;20101;-77
2022/06/14 10:48:57;;;;;;;5.43;0.60;;;21.30;60.70;;;;;;5099367;28;20025;-77
2022/06/14 10:52:00;;;;;;;4.97;0.60;;;21.50;60.00;;;;;;5070441;28;20044;-77
2022/06/14 10:55:19;;;;;;;4.40;0.52;;;21.70;61.40;;;;;;5099505;28;20407;-77
2022/06/14 10:58:06;;;;;;;4.50;0.40;;;22.00;62.30;;;;;;5036682;28;20029;-77
2022/06/14 11:01:02;;;;;;;2.47;0.60;;;22.00;60.60;;;;;;5037073;28;20087;-77
2022/06/14 11:03:58;;;;;;;3.30;0.77;;;22.10;61.00;;;;;;5092770;28;20144;-77
2022/06/14 11:06:44;;;;;;;3.33;0.70;;;22.10;58.80;;;;;;5095755;28;20024;-77
2022/06/14 11:09:10;;;;;;;3.10;0.52;;;22.20;58.70;;;;;;5096189;28;20035;-77
2022/06/14 11:12:10;;;;;;;4.00;0.40;;;22.20;59.20;;;;;;5096106;28;20115;-77
2022/06/14 11:15:05;;;;;;;6.25;0.50;;;22.40;60.00;;;;;;5095589;28;20380;-77
2022/06/14 11:17:52;;;;;;;2.03;0.57;;;22.30;59.30;;;;;;5095551;28;20043;-77
2022/06/14 11:20:30;;;;;;;2.60;0.40;;;22.40;60.10;;;;;;5095606;28;20032;-77
2022/06/14 11:23:04;;;;;;;4.68;0.43;;;22.40;56.90;;;;;;5095336;28;20428;-77
2022/06/14 11:26:11;;;;;;;5.90;0.70;;;22.50;58.70;;;;;;5095494;28;20431;-77
2022/06/14 11:28:42;;;;;;;2.55;0.40;;;22.60;57.40;;;;;;5087432;28;20032;-77
2022/06/14 11:31:30;;;;;;;6.00;0.70;;;22.60;56.20;;;;;;5095231;28;20124;-77
2022/06/14 11:34:14;;;;;;;4.78;0.50;;;22.70;58.40;;;;;;5095494;28;20070;-77
2022/06/14 11:36:58;;;;;;;2.42;0.50;;;22.70;56.70;;;;;;5095265;28;20030;-77
2022/06/14 11:39:42;;;;;;;2.88;0.40;;;22.70;57.90;;;;;;5095480;28;20543;-77
2022/06/14 11:42:29;;;;;;;4.10;0.65;;;22.80;57.20;;;;;;5095525;28;20024;-77
2022/06/14 11:45:16;;;;;;;3.95;0.65;;;22.70;56.50;;;;;;5095349;28;20055;-77
2022/06/14 11:48:00;;;;;;;2.95;0.52;;;22.80;56.50;;;;;;5095328;28;20040;-77
2022/06/14 11:50:37;;;;;;;2.83;0.40;;;22.90;58.20;;;;;;5094862;28;20210;-77
2022/06/14 11:53:09;;;;;;;3.35;0.40;;;23.10;58.00;;;;;;5095668;28;20035;-77
2022/06/14 11:55:56;;;;;;;5.38;0.60;;;23.10;56.70;;;;;;5095030;28;20119;-77
2022/06/14 11:58:39;;;;;;;2.88;0.50;;;23.20;56.00;;;;;;5094920;28;20494;-77
2022/06/14 12:01:30;;;;;;;4.85;0.50;;;23.40;55.60;;;;;;5095145;28;20024;-77
2022/06/14 12:04:03;;;;;;;4.20;0.50;;;23.40;55.00;;;;;;5094953;28;20054;-77
2022/06/14 12:07:03;;;;;;;2.55;0.35;;;23.30;55.40;;;;;;5095016;28;20024;-77
2022/06/14 12:09:55;;;;;;;5.30;0.50;;;23.20;55.80;;;;;;5095200;28;20028;-77
2022/06/14 12:12:26;;;;;;;3.63;0.52;;;23.00;55.90;;;;;;5094419;28;20082;-77
2022/06/14 12:15:10;;;;;;;4.63;0.52;;;22.70;56.70;;;;;;5094268;28;20051;-77
2022/06/14 12:17:45;;;;;;;5.18;0.50;;;22.80;59.00;;;;;;5094100;28;20057;-76
2022/06/14 12:20:15;;;;;;;6.82;0.60;;;22.90;60.10;;;;;;5094034;28;20024;-77
2022/06/14 12:23:11;;;;;;;4.43;0.52;;;23.00;56.70;;;;;;5093580;28;20028;-77
2022/06/14 12:29:10;;;;;;;3.47;0.40;;;23.50;56.80;;;;;;5094524;28;20027;-77
2022/06/14 12:31:48;;;;;;;3.72;0.80;;;23.60;54.40;;;;;;5094072;28;20028;-76
2022/06/14 12:34:23;;;;;;;4.30;0.45;;;23.70;54.80;;;;;;5094071;28;20031;-77
2022/06/14 12:37:18;;;;;;;5.30;0.57;;;23.80;55.50;;;;;;5094543;28;20032;-77
2022/06/14 12:40:11;;;;;;;4.43;0.75;;;23.90;55.60;;;;;;5086341;28;20036;-77
2022/06/14 12:42:58;;;;;;;4.68;0.60;;;24.00;55.40;;;;;;5093885;28;20029;-77
2022/06/14 12:45:31;;;;;;;3.63;0.60;;;24.10;55.80;;;;;;5093667;28;20491;-77
2022/06/14 12:48:00;;;;;;;2.60;0.73;;;24.30;55.70;;;;;;5094183;28;20083;-77
2022/06/14 12:50:32;;;;;;;3.05;0.50;;;24.10;54.50;;;;;;5094208;28;20042;-77
2022/06/14 12:53:11;;;;;;;5.38;0.60;;;23.80;55.30;;;;;;5093941;28;20107;-77
2022/06/14 12:55:43;;;;;;;3.13;0.65;;;23.80;56.10;;;;;;5094101;28;20103;-77
2022/06/14 12:58:34;;;;;;;3.75;0.63;;;23.90;54.90;;;;;;5093918;28;20479;-77
2022/06/14 13:01:19;;;;;;;2.58;0.55;;;24.10;57.60;;;;;;5093546;28;20529;-76
2022/06/14 13:03:50;;;;;;;4.80;0.70;;;24.20;58.00;;;;;;5093777;28;20491;-77
2022/06/14 13:06:53;;;;;;;7.22;0.85;;;24.20;55.00;;;;;;5093788;28;20070;-77
2022/06/14 13:09:30;;;;;;;3.47;0.50;;;24.00;55.90;;;;;;5093613;28;20032;-78
2022/06/14 13:12:17;;;;;;;3.08;0.77;;;24.20;55.80;;;;;;5093680;28;20475;-78
2022/06/14 13:15:21;;;;;;;2.90;0.45;;;24.10;55.70;;;;;;5093716;28;20379;-77
2022/06/14 13:18:24;;;;;;;3.05;0.38;;;23.80;54.70;;;;;;5093816;28;20028;-77
2022/06/14 13:21:09;;;;;;;3.80;0.32;;;23.90;56.10;;;;;;5093755;28;20032;-77
2022/06/14 13:24:01;;;;;;;3.70;0.43;;;24.20;56.10;;;;;;5093502;28;20024;-77
2022/06/14 13:26:41;;;;;;;5.28;0.90;;;24.30;55.00;;;;;;5092995;28;20020;-77
2022/06/14 13:29:29;;;;;;;3.92;0.68;;;24.20;55.10;;;;;;5093276;28;20024;-77
2022/06/14 13:31:57;;;;;;;2.95;0.38;;;24.10;54.40;;;;;;5093194;28;20024;-77
2022/06/14 13:34:40;;;;;;;3.65;0.30;;;24.10;54.30;;;;;;5092926;28;20058;-77
2022/06/14 13:37:14;;;;;;;;;;;24.00;54.30;;;;;;5093980;28;20016;-77
2022/06/14 13:39:56;;;;;;;4.32;0.60;;;23.90;54.50;;;;;;5093843;28;19912;-77
2022/06/14 13:42:32;;;;;;;7.38;0.75;;;23.70;55.10;;;;;;5093230;28;20024;-77
2022/06/14 13:45:09;;;;;;;4.25;0.70;;;23.60;56.00;;;;;;5093181;28;20050;-77
2022/06/14 13:47:58;;;;;;;4.22;0.55;;;23.50;55.50;;;;;;5093254;28;20024;-77
2022/06/14 13:50:40;;;;;;;9.50;0.80;;;23.40;55.60;;;;;;5093325;28;20169;-77
2022/06/14 13:53:29;;;;;;;4.25;0.80;;;23.40;56.50;;;;;;5093475;28;20100;-78
2022/06/14 13:56:06;;;;;;;2.95;0.38;;;23.50;56.60;;;;;;5093249;28;20024;-77
2022/06/14 13:58:53;;;;;;;5.10;0.73;;;23.70;57.80;;;;;;5093318;28;20031;-77
2022/06/14 14:01:26;;;;;;;2.80;0.60;;;23.90;56.80;;;;;;5093431;28;20021;-77
2022/06/14 14:04:06;;;;;;;3.08;0.50;;;23.80;55.80;;;;;;5093150;28;20032;-77
2022/06/14 14:06:41;;;;;;;2.67;0.45;;;23.80;55.30;;;;;;5093157;28;20024;-77
2022/06/14 14:09:12;;;;;;;6.85;0.55;;;24.00;54.00;;;;;;5092912;28;20021;-77
2022/06/14 14:11:41;;;;;;;4.18;0.60;;;24.20;54.90;;;;;;5092837;28;20060;-77
2022/06/14 14:14:12;;;;;;;3.15;0.50;;;24.30;53.20;;;;;;5092815;28;20028;-77